sensor_id;sensor_type;location;lat;lon;timestamp;P1;durP1;ratioP1;P2;durP2;ratioP2
43760;SDS011;29380;50.124;8.692;2024-03-23T00:53:52;22.83;;;16.10;;
43760;SDS011;29380;50.124;8.692;2024-03-23T00:56:18;17.88;;;13.38;;
43760;SDS011;29380;50.124;8.692;2024-03-23T00:58:44;18.67;;;13.70;;
43760;SDS011;29380;50.124;8.692;2024-03-23T01:01:10;16.05;;;12.93;;
43760;SDS011;29380;50.124;8.692;2024-03-23T01:03:36;21.05;;;14.48;;
43760;SDS011;29380;50.124;8.692;2024-03-23T01:06:02;16.67;;;14.38;;
43760;SDS011;29380;50.124;8.692;2024-03-23T01:08:29;23.75;;;14.05;;
43760;SDS011;29380;50.124;8.692;2024-03-23T01:10:58;21.95;;;14.13;;
43760;SDS011;29380;50.124;8.692;2024-03-23T01:13:25;22.33;;;14.55;;
43760;SDS011;29380;50.124;8.692;2024-03-23T01:15:51;17.17;;;14.63;;
43760;SDS011;29380;50.124;8.692;2024-03-23T01:18:18;21.70;;;15.32;;
43760;SDS011;29380;50.124;8.692;2024-03-23T01:20:44;24.40;;;15.82;;
43760;SDS011;29380;50.124;8.692;2024-03-23T01:23:11;18.48;;;15.45;;
43760;SDS011;29380;50.124;8.692;2024-03-23T01:25:37;22.17;;;15.35;;
43760;SDS011;29380;50.124;8.692;2024-03-23T01:28:03;21.15;;;15.27;;
43760;SDS011;29380;50.124;8.692;2024-03-23T01:30:31;20.00;;;15.23;;
43760;SDS011;29380;50.124;8.692;2024-03-23T01:32:57;21.67;;;15.52;;
43760;SDS011;29380;50.124;8.692;2024-03-23T01:35:23;22.20;;;14.93;;
43760;SDS011;29380;50.124;8.692;2024-03-23T01:37:49;24.55;;;16.15;;
43760;SDS011;29380;50.124;8.692;2024-03-23T01:40:18;23.58;;;15.38;;
43760;SDS011;29380;50.124;8.692;2024-03-23T01:42:57;18.75;;;14.43;;
43760;SDS011;29380;50.124;8.692;2024-03-23T01:45:23;19.17;;;14.15;;
43760;SDS011;29380;50.124;8.692;2024-03-23T01:47:49;20.92;;;14.25;;
43760;SDS011;29380;50.124;8.692;2024-03-23T01:50:16;20.95;;;15.40;;
43760;SDS011;29380;50.124;8.692;2024-03-23T01:52:42;19.17;;;14.50;;
43760;SDS011;29380;50.124;8.692;2024-03-23T01:55:09;20.63;;;13.95;;
43760;SDS011;29380;50.124;8.692;2024-03-23T01:57:35;17.85;;;13.77;;
43760;SDS011;29380;50.124;8.692;2024-03-23T02:00:01;22.33;;;13.75;;
43760;SDS011;29380;50.124;8.692;2024-03-23T02:02:27;20.70;;;14.50;;
43760;SDS011;29380;50.124;8.692;2024-03-23T02:04:53;20.65;;;15.55;;
43760;SDS011;29380;50.124;8.692;2024-03-23T02:07:19;18.45;;;14.32;;
43760;SDS011;29380;50.124;8.692;2024-03-23T02:09:45;20.52;;;14.93;;
43760;SDS011;29380;50.124;8.692;2024-03-23T02:12:11;20.95;;;14.88;;
43760;SDS011;29380;50.124;8.692;2024-03-23T02:14:37;23.73;;;15.95;;
43760;SDS011;29380;50.124;8.692;2024-03-23T02:17:03;23.00;;;16.25;;
43760;SDS011;29380;50.124;8.692;2024-03-23T02:19:29;25.77;;;16.25;;
43760;SDS011;29380;50.124;8.692;2024-03-23T02:21:55;22.10;;;15.77;;
43760;SDS011;29380;50.124;8.692;2024-03-23T02:24:21;21.95;;;16.48;;
43760;SDS011;29380;50.124;8.692;2024-03-23T02:26:47;21.08;;;17.40;;
43760;SDS011;29380;50.124;8.692;2024-03-23T02:29:14;22.98;;;16.08;;
43760;SDS011;29380;50.124;8.692;2024-03-23T02:31:40;21.23;;;16.20;;
43760;SDS011;29380;50.124;8.692;2024-03-23T02:34:06;24.85;;;16.67;;
43760;SDS011;29380;50.124;8.692;2024-03-23T02:36:32;26.35;;;16.50;;
43760;SDS011;29380;50.124;8.692;2024-03-23T02:38:58;26.60;;;16.23;;
43760;SDS011;29380;50.124;8.692;2024-03-23T02:41:24;22.98;;;16.25;;
43760;SDS011;29380;50.124;8.692;2024-03-23T02:43:50;21.08;;;15.50;;
43760;SDS011;29380;50.124;8.692;2024-03-23T02:46:16;20.00;;;14.60;;
43760;SDS011;29380;50.124;8.692;2024-03-23T02:48:42;23.42;;;15.32;;
43760;SDS011;29380;50.124;8.692;2024-03-23T02:51:08;30.10;;;15.02;;
43760;SDS011;29380;50.124;8.692;2024-03-23T02:53:34;21.08;;;14.70;;
43760;SDS011;29380;50.124;8.692;2024-03-23T02:56:01;19.67;;;15.45;;
43760;SDS011;29380;50.124;8.692;2024-03-23T02:58:27;27.73;;;15.20;;
43760;SDS011;29380;50.124;8.692;2024-03-23T03:00:53;20.02;;;15.48;;
43760;SDS011;29380;50.124;8.692;2024-03-23T03:03:19;22.35;;;15.80;;
43760;SDS011;29380;50.124;8.692;2024-03-23T03:05:45;24.88;;;15.05;;
43760;SDS011;29380;50.124;8.692;2024-03-23T03:08:11;21.02;;;16.02;;
43760;SDS011;29380;50.124;8.692;2024-03-23T03:10:37;22.05;;;15.50;;
43760;SDS011;29380;50.124;8.692;2024-03-23T03:13:03;20.20;;;14.05;;
43760;SDS011;29380;50.124;8.692;2024-03-23T03:15:29;21.95;;;16.38;;
43760;SDS011;29380;50.124;8.692;2024-03-23T03:17:55;22.65;;;15.90;;
43760;SDS011;29380;50.124;8.692;2024-03-23T03:20:21;20.98;;;15.93;;
43760;SDS011;29380;50.124;8.692;2024-03-23T03:22:48;23.67;;;16.48;;
43760;SDS011;29380;50.124;8.692;2024-03-23T03:25:14;21.08;;;15.73;;
43760;SDS011;29380;50.124;8.692;2024-03-23T03:27:40;19.95;;;15.60;;
43760;SDS011;29380;50.124;8.692;2024-03-23T03:30:06;20.77;;;14.98;;
43760;SDS011;29380;50.124;8.692;2024-03-23T03:32:33;22.45;;;16.65;;
43760;SDS011;29380;50.124;8.692;2024-03-23T03:34:59;22.42;;;15.75;;
43760;SDS011;29380;50.124;8.692;2024-03-23T03:37:25;21.17;;;15.73;;
43760;SDS011;29380;50.124;8.692;2024-03-23T03:39:51;20.55;;;15.65;;
43760;SDS011;29380;50.124;8.692;2024-03-23T03:42:17;21.70;;;15.63;;
43760;SDS011;29380;50.124;8.692;2024-03-23T03:44:43;24.55;;;17.90;;
43760;SDS011;29380;50.124;8.692;2024-03-23T03:47:09;24.42;;;17.80;;
43760;SDS011;29380;50.124;8.692;2024-03-23T03:49:35;25.85;;;16.98;;
43760;SDS011;29380;50.124;8.692;2024-03-23T03:52:02;22.33;;;17.17;;
43760;SDS011;29380;50.124;8.692;2024-03-23T03:54:28;22.63;;;16.23;;
43760;SDS011;29380;50.124;8.692;2024-03-23T03:56:54;21.42;;;16.20;;
43760;SDS011;29380;50.124;8.692;2024-03-23T03:59:20;25.95;;;14.95;;
43760;SDS011;29380;50.124;8.692;2024-03-23T04:01:46;18.92;;;14.85;;
43760;SDS011;29380;50.124;8.692;2024-03-23T04:04:12;31.77;;;18.20;;
43760;SDS011;29380;50.124;8.692;2024-03-23T04:06:39;25.25;;;19.15;;
43760;SDS011;29380;50.124;8.692;2024-03-23T04:09:05;29.25;;;21.00;;
43760;SDS011;29380;50.124;8.692;2024-03-23T04:11:31;30.20;;;20.13;;
43760;SDS011;29380;50.124;8.692;2024-03-23T04:13:57;28.05;;;19.65;;
43760;SDS011;29380;50.124;8.692;2024-03-23T04:16:33;28.95;;;20.13;;
43760;SDS011;29380;50.124;8.692;2024-03-23T04:18:59;36.90;;;21.00;;
43760;SDS011;29380;50.124;8.692;2024-03-23T04:21:25;30.15;;;20.17;;
43760;SDS011;29380;50.124;8.692;2024-03-23T04:23:51;31.65;;;18.52;;
43760;SDS011;29380;50.124;8.692;2024-03-23T04:26:17;26.10;;;16.90;;
43760;SDS011;29380;50.124;8.692;2024-03-23T04:28:44;17.83;;;12.07;;
43760;SDS011;29380;50.124;8.692;2024-03-23T04:31:10;13.55;;;9.60;;
43760;SDS011;29380;50.124;8.692;2024-03-23T04:33:36;8.43;;;5.65;;
43760;SDS011;29380;50.124;8.692;2024-03-23T04:36:02;7.18;;;4.53;;
43760;SDS011;29380;50.124;8.692;2024-03-23T04:38:29;4.45;;;2.88;;
43760;SDS011;29380;50.124;8.692;2024-03-23T04:40:58;5.68;;;2.35;;
43760;SDS011;29380;50.124;8.692;2024-03-23T04:43:25;4.00;;;1.80;;
43760;SDS011;29380;50.124;8.692;2024-03-23T04:45:51;3.38;;;1.88;;
43760;SDS011;29380;50.124;8.692;2024-03-23T04:48:21;3.03;;;1.90;;
43760;SDS011;29380;50.124;8.692;2024-03-23T04:50:47;2.03;;;1.50;;
43760;SDS011;29380;50.124;8.692;2024-03-23T04:53:14;3.47;;;2.03;;
43760;SDS011;29380;50.124;8.692;2024-03-23T04:55:43;2.58;;;1.38;;
43760;SDS011;29380;50.124;8.692;2024-03-23T04:58:09;0.75;;;0.45;;
43760;SDS011;29380;50.124;8.692;2024-03-23T05:00:35;1.40;;;0.63;;
43760;SDS011;29380;50.124;8.692;2024-03-23T05:03:01;0.50;;;0.40;;
43760;SDS011;29380;50.124;8.692;2024-03-23T05:05:29;0.60;;;0.30;;
43760;SDS011;29380;50.124;8.692;2024-03-23T05:07:55;1.38;;;0.65;;
43760;SDS011;29380;50.124;8.692;2024-03-23T05:10:21;0.40;;;0.25;;
43760;SDS011;29380;50.124;8.692;2024-03-23T05:12:47;0.40;;;0.20;;
43760;SDS011;29380;50.124;8.692;2024-03-23T05:15:13;0.52;;;0.20;;
43760;SDS011;29380;50.124;8.692;2024-03-23T05:17:39;0.30;;;0.20;;
43760;SDS011;29380;50.124;8.692;2024-03-23T05:20:05;0.17;;;0.10;;
43760;SDS011;29380;50.124;8.692;2024-03-23T05:22:34;0.73;;;0.40;;
43760;SDS011;29380;50.124;8.692;2024-03-23T05:25:01;4.78;;;0.38;;
43760;SDS011;29380;50.124;8.692;2024-03-23T05:27:29;0.75;;;0.30;;
43760;SDS011;29380;50.124;8.692;2024-03-23T05:29:55;1.58;;;0.50;;
43760;SDS011;29380;50.124;8.692;2024-03-23T05:32:21;1.38;;;0.30;;
43760;SDS011;29380;50.124;8.692;2024-03-23T05:34:47;1.42;;;0.57;;
43760;SDS011;29380;50.124;8.692;2024-03-23T05:37:15;2.38;;;0.40;;
43760;SDS011;29380;50.124;8.692;2024-03-23T05:39:41;0.60;;;0.40;;
43760;SDS011;29380;50.124;8.692;2024-03-23T05:42:07;1.17;;;0.40;;
43760;SDS011;29380;50.124;8.692;2024-03-23T05:44:33;2.22;;;0.60;;
43760;SDS011;29380;50.124;8.692;2024-03-23T05:46:59;1.27;;;0.80;;
43760;SDS011;29380;50.124;8.692;2024-03-23T05:49:25;0.98;;;0.50;;
43760;SDS011;29380;50.124;8.692;2024-03-23T05:51:51;0.80;;;0.57;;
43760;SDS011;29380;50.124;8.692;2024-03-23T05:54:17;0.90;;;0.47;;
43760;SDS011;29380;50.124;8.692;2024-03-23T05:56:44;1.15;;;0.50;;
43760;SDS011;29380;50.124;8.692;2024-03-23T05:59:10;0.75;;;0.52;;
43760;SDS011;29380;50.124;8.692;2024-03-23T06:01:36;0.60;;;0.47;;
43760;SDS011;29380;50.124;8.692;2024-03-23T06:04:03;1.30;;;0.60;;
43760;SDS011;29380;50.124;8.692;2024-03-23T06:06:29;1.08;;;0.50;;
43760;SDS011;29380;50.124;8.692;2024-03-23T06:08:55;0.63;;;0.50;;
43760;SDS011;29380;50.124;8.692;2024-03-23T06:11:22;1.42;;;0.70;;
43760;SDS011;29380;50.124;8.692;2024-03-23T06:13:48;0.95;;;0.80;;
43760;SDS011;29380;50.124;8.692;2024-03-23T06:16:14;0.75;;;0.68;;
43760;SDS011;29380;50.124;8.692;2024-03-23T06:18:40;1.27;;;0.35;;
43760;SDS011;29380;50.124;8.692;2024-03-23T06:21:12;2.35;;;0.40;;
43760;SDS011;29380;50.124;8.692;2024-03-23T06:23:38;1.27;;;0.20;;
43760;SDS011;29380;50.124;8.692;2024-03-23T06:26:04;0.85;;;0.47;;
43760;SDS011;29380;50.124;8.692;2024-03-23T06:28:30;0.43;;;0.30;;
43760;SDS011;29380;50.124;8.692;2024-03-23T06:30:56;0.30;;;0.10;;
43760;SDS011;29380;50.124;8.692;2024-03-23T06:33:22;0.40;;;0.10;;
43760;SDS011;29380;50.124;8.692;2024-03-23T06:35:52;0.32;;;0.03;;
43760;SDS011;29380;50.124;8.692;2024-03-23T06:38:18;0.28;;;0.08;;
43760;SDS011;29380;50.124;8.692;2024-03-23T06:40:45;0.10;;;0.05;;
43760;SDS011;29380;50.124;8.692;2024-03-23T06:43:15;0.17;;;0.10;;
43760;SDS011;29380;50.124;8.692;2024-03-23T06:45:41;0.10;;;0.10;;
43760;SDS011;29380;50.124;8.692;2024-03-23T06:48:07;0.40;;;0.20;;
43760;SDS011;29380;50.124;8.692;2024-03-23T06:50:33;0.50;;;0.10;;
43760;SDS011;29380;50.124;8.692;2024-03-23T06:53:00;0.85;;;0.20;;
43760;SDS011;29380;50.124;8.692;2024-03-23T06:55:27;0.05;;;0.00;;
43760;SDS011;29380;50.124;8.692;2024-03-23T06:57:54;0.82;;;0.10;;
43760;SDS011;29380;50.124;8.692;2024-03-23T07:00:20;0.85;;;0.40;;
43760;SDS011;29380;50.124;8.692;2024-03-23T07:02:46;1.10;;;0.10;;
43760;SDS011;29380;50.124;8.692;2024-03-23T07:05:12;1.10;;;0.15;;
43760;SDS011;29380;50.124;8.692;2024-03-23T07:07:38;0.30;;;0.10;;
43760;SDS011;29380;50.124;8.692;2024-03-23T07:10:05;1.80;;;0.70;;
43760;SDS011;29380;50.124;8.692;2024-03-23T07:12:31;0.17;;;0.10;;
43760;SDS011;29380;50.124;8.692;2024-03-23T07:14:57;1.50;;;0.30;;
43760;SDS011;29380;50.124;8.692;2024-03-23T07:17:23;0.45;;;0.22;;
43760;SDS011;29380;50.124;8.692;2024-03-23T07:19:49;1.23;;;0.20;;
43760;SDS011;29380;50.124;8.692;2024-03-23T07:22:15;2.03;;;0.73;;
43760;SDS011;29380;50.124;8.692;2024-03-23T07:24:41;1.80;;;0.30;;
43760;SDS011;29380;50.124;8.692;2024-03-23T07:27:08;1.20;;;0.50;;
43760;SDS011;29380;50.124;8.692;2024-03-23T07:29:35;2.35;;;0.68;;
43760;SDS011;29380;50.124;8.692;2024-03-23T07:32:01;2.22;;;0.57;;
43760;SDS011;29380;50.124;8.692;2024-03-23T07:34:27;0.93;;;0.60;;
43760;SDS011;29380;50.124;8.692;2024-03-23T07:36:53;1.75;;;0.63;;
43760;SDS011;29380;50.124;8.692;2024-03-23T07:39:19;2.50;;;0.80;;
43760;SDS011;29380;50.124;8.692;2024-03-23T07:41:45;4.95;;;0.98;;
43760;SDS011;29380;50.124;8.692;2024-03-23T07:44:11;5.18;;;1.52;;
43760;SDS011;29380;50.124;8.692;2024-03-23T07:46:38;2.92;;;1.20;;
43760;SDS011;29380;50.124;8.692;2024-03-23T07:49:04;6.20;;;1.42;;
43760;SDS011;29380;50.124;8.692;2024-03-23T07:51:30;4.07;;;0.60;;
43760;SDS011;29380;50.124;8.692;2024-03-23T07:53:56;2.78;;;0.80;;
43760;SDS011;29380;50.124;8.692;2024-03-23T07:56:22;11.90;;;1.63;;
43760;SDS011;29380;50.124;8.692;2024-03-23T07:58:49;6.07;;;1.30;;
43760;SDS011;29380;50.124;8.692;2024-03-23T08:01:15;2.50;;;0.80;;
43760;SDS011;29380;50.124;8.692;2024-03-23T08:03:42;12.70;;;3.10;;
43760;SDS011;29380;50.124;8.692;2024-03-23T08:06:18;3.97;;;1.60;;
43760;SDS011;29380;50.124;8.692;2024-03-23T08:08:45;11.18;;;2.30;;
43760;SDS011;29380;50.124;8.692;2024-03-23T08:11:12;9.82;;;2.03;;
43760;SDS011;29380;50.124;8.692;2024-03-23T08:13:39;7.25;;;1.42;;
43760;SDS011;29380;50.124;8.692;2024-03-23T08:16:05;7.05;;;1.42;;
43760;SDS011;29380;50.124;8.692;2024-03-23T08:18:31;6.63;;;2.63;;
43760;SDS011;29380;50.124;8.692;2024-03-23T08:21:01;10.00;;;3.22;;
43760;SDS011;29380;50.124;8.692;2024-03-23T08:23:28;10.73;;;3.75;;
43760;SDS011;29380;50.124;8.692;2024-03-23T08:25:57;9.32;;;3.42;;
43760;SDS011;29380;50.124;8.692;2024-03-23T08:28:23;8.90;;;3.45;;
43760;SDS011;29380;50.124;8.692;2024-03-23T08:30:49;9.15;;;4.28;;
43760;SDS011;29380;50.124;8.692;2024-03-23T08:33:16;9.90;;;4.25;;
43760;SDS011;29380;50.124;8.692;2024-03-23T08:35:42;6.32;;;3.10;;
43760;SDS011;29380;50.124;8.692;2024-03-23T08:38:08;11.05;;;4.47;;
43760;SDS011;29380;50.124;8.692;2024-03-23T08:40:34;5.05;;;3.22;;
43760;SDS011;29380;50.124;8.692;2024-03-23T08:43:00;5.97;;;3.58;;
43760;SDS011;29380;50.124;8.692;2024-03-23T08:45:26;8.15;;;2.95;;
43760;SDS011;29380;50.124;8.692;2024-03-23T08:47:52;8.32;;;4.13;;
43760;SDS011;29380;50.124;8.692;2024-03-23T08:50:18;5.60;;;3.05;;
43760;SDS011;29380;50.124;8.692;2024-03-23T08:52:44;7.30;;;3.05;;
43760;SDS011;29380;50.124;8.692;2024-03-23T08:55:10;7.25;;;3.22;;
43760;SDS011;29380;50.124;8.692;2024-03-23T08:57:36;10.90;;;3.80;;
43760;SDS011;29380;50.124;8.692;2024-03-23T09:00:02;8.30;;;3.70;;
43760;SDS011;29380;50.124;8.692;2024-03-23T09:02:31;9.77;;;2.65;;
43760;SDS011;29380;50.124;8.692;2024-03-23T09:04:57;6.40;;;2.75;;
43760;SDS011;29380;50.124;8.692;2024-03-23T09:07:29;6.38;;;2.65;;
43760;SDS011;29380;50.124;8.692;2024-03-23T09:09:55;7.70;;;3.03;;
43760;SDS011;29380;50.124;8.692;2024-03-23T09:12:21;11.40;;;2.72;;
43760;SDS011;29380;50.124;8.692;2024-03-23T09:14:47;6.88;;;2.22;;
43760;SDS011;29380;50.124;8.692;2024-03-23T09:17:14;15.82;;;2.65;;
43760;SDS011;29380;50.124;8.692;2024-03-23T09:19:40;10.93;;;2.85;;
43760;SDS011;29380;50.124;8.692;2024-03-23T09:22:06;10.27;;;2.90;;
43760;SDS011;29380;50.124;8.692;2024-03-23T09:24:32;8.50;;;3.30;;
43760;SDS011;29380;50.124;8.692;2024-03-23T09:26:58;9.10;;;3.03;;
43760;SDS011;29380;50.124;8.692;2024-03-23T09:29:24;9.50;;;3.00;;
43760;SDS011;29380;50.124;8.692;2024-03-23T09:31:50;9.77;;;3.17;;
43760;SDS011;29380;50.124;8.692;2024-03-23T09:34:16;5.97;;;2.85;;
43760;SDS011;29380;50.124;8.692;2024-03-23T09:36:42;9.55;;;2.83;;
43760;SDS011;29380;50.124;8.692;2024-03-23T09:39:09;5.80;;;2.20;;
43760;SDS011;29380;50.124;8.692;2024-03-23T09:41:35;10.85;;;3.10;;
43760;SDS011;29380;50.124;8.692;2024-03-23T09:44:01;7.90;;;2.50;;
43760;SDS011;29380;50.124;8.692;2024-03-23T09:46:27;7.13;;;2.40;;
43760;SDS011;29380;50.124;8.692;2024-03-23T09:48:55;6.15;;;2.30;;
43760;SDS011;29380;50.124;8.692;2024-03-23T09:51:21;10.55;;;2.60;;
43760;SDS011;29380;50.124;8.692;2024-03-23T09:53:49;7.38;;;3.90;;
43760;SDS011;29380;50.124;8.692;2024-03-23T09:56:17;5.85;;;2.30;;
43760;SDS011;29380;50.124;8.692;2024-03-23T09:58:43;10.85;;;3.53;;
43760;SDS011;29380;50.124;8.692;2024-03-23T10:01:09;7.65;;;2.78;;
43760;SDS011;29380;50.124;8.692;2024-03-23T10:03:42;6.78;;;3.22;;
43760;SDS011;29380;50.124;8.692;2024-03-23T10:06:08;13.50;;;3.10;;
43760;SDS011;29380;50.124;8.692;2024-03-23T10:08:34;8.65;;;3.25;;
43760;SDS011;29380;50.124;8.692;2024-03-23T10:11:12;8.38;;;2.78;;
43760;SDS011;29380;50.124;8.692;2024-03-23T10:13:38;7.60;;;1.90;;
43760;SDS011;29380;50.124;8.692;2024-03-23T10:16:07;8.95;;;2.35;;
43760;SDS011;29380;50.124;8.692;2024-03-23T10:18:36;9.15;;;2.65;;
43760;SDS011;29380;50.124;8.692;2024-03-23T10:21:07;13.77;;;2.67;;
43760;SDS011;29380;50.124;8.692;2024-03-23T10:23:34;6.00;;;1.95;;
43760;SDS011;29380;50.124;8.692;2024-03-23T10:26:16;8.57;;;2.33;;
43760;SDS011;29380;50.124;8.692;2024-03-23T10:28:59;10.77;;;1.83;;
43760;SDS011;29380;50.124;8.692;2024-03-23T10:31:27;11.13;;;1.98;;
43760;SDS011;29380;50.124;8.692;2024-03-23T10:33:53;8.40;;;1.70;;
43760;SDS011;29380;50.124;8.692;2024-03-23T10:36:20;5.85;;;1.45;;
43760;SDS011;29380;50.124;8.692;2024-03-23T10:38:46;4.43;;;1.88;;
43760;SDS011;29380;50.124;8.692;2024-03-23T10:41:12;11.85;;;2.45;;
43760;SDS011;29380;50.124;8.692;2024-03-23T10:43:38;7.50;;;2.15;;
43760;SDS011;29380;50.124;8.692;2024-03-23T10:46:05;7.93;;;2.00;;
43760;SDS011;29380;50.124;8.692;2024-03-23T10:48:32;10.10;;;2.47;;
43760;SDS011;29380;50.124;8.692;2024-03-23T10:50:58;8.50;;;2.75;;
43760;SDS011;29380;50.124;8.692;2024-03-23T10:53:28;13.57;;;3.00;;
43760;SDS011;29380;50.124;8.692;2024-03-23T10:55:54;9.00;;;2.53;;
43760;SDS011;29380;50.124;8.692;2024-03-23T10:58:30;8.00;;;1.75;;
43760;SDS011;29380;50.124;8.692;2024-03-23T11:00:57;9.13;;;2.30;;
43760;SDS011;29380;50.124;8.692;2024-03-23T11:05:59;15.75;;;2.72;;
43760;SDS011;29380;50.124;8.692;2024-03-23T11:13:39;2.72;;;1.38;;
43760;SDS011;29380;50.124;8.692;2024-03-23T11:18:40;7.45;;;1.58;;
43760;SDS011;29380;50.124;8.692;2024-03-23T11:21:07;5.45;;;1.13;;
43760;SDS011;29380;50.124;8.692;2024-03-23T11:23:33;6.63;;;1.65;;
43760;SDS011;29380;50.124;8.692;2024-03-23T11:25:59;5.10;;;0.90;;
43760;SDS011;29380;50.124;8.692;2024-03-23T11:28:25;4.53;;;1.42;;
43760;SDS011;29380;50.124;8.692;2024-03-23T11:30:51;5.43;;;1.27;;
43760;SDS011;29380;50.124;8.692;2024-03-23T11:33:17;6.82;;;1.15;;
43760;SDS011;29380;50.124;8.692;2024-03-23T11:35:44;7.53;;;1.90;;
43760;SDS011;29380;50.124;8.692;2024-03-23T11:38:11;5.20;;;1.35;;
43760;SDS011;29380;50.124;8.692;2024-03-23T11:43:10;3.70;;;1.85;;
43760;SDS011;29380;50.124;8.692;2024-03-23T11:45:40;8.10;;;2.42;;
43760;SDS011;29380;50.124;8.692;2024-03-23T11:50:33;11.40;;;3.15;;
43760;SDS011;29380;50.124;8.692;2024-03-23T11:53:16;7.70;;;2.42;;
43760;SDS011;29380;50.124;8.692;2024-03-23T11:55:43;5.63;;;2.42;;
43760;SDS011;29380;50.124;8.692;2024-03-23T11:58:10;4.45;;;2.33;;
43760;SDS011;29380;50.124;8.692;2024-03-23T12:00:36;7.13;;;1.85;;
43760;SDS011;29380;50.124;8.692;2024-03-23T12:03:03;7.07;;;2.10;;
43760;SDS011;29380;50.124;8.692;2024-03-23T12:05:29;9.10;;;2.15;;
43760;SDS011;29380;50.124;8.692;2024-03-23T12:08:14;6.13;;;2.20;;
43760;SDS011;29380;50.124;8.692;2024-03-23T12:10:41;4.18;;;1.80;;
43760;SDS011;29380;50.124;8.692;2024-03-23T12:13:07;7.20;;;2.08;;
43760;SDS011;29380;50.124;8.692;2024-03-23T12:15:33;12.38;;;2.80;;
43760;SDS011;29380;50.124;8.692;2024-03-23T12:18:05;8.00;;;2.03;;
43760;SDS011;29380;50.124;8.692;2024-03-23T12:20:31;7.20;;;2.22;;
43760;SDS011;29380;50.124;8.692;2024-03-23T12:23:07;10.93;;;2.30;;
43760;SDS011;29380;50.124;8.692;2024-03-23T12:25:35;7.95;;;1.98;;
43760;SDS011;29380;50.124;8.692;2024-03-23T12:28:01;10.15;;;2.65;;
43760;SDS011;29380;50.124;8.692;2024-03-23T12:30:28;7.47;;;2.30;;
43760;SDS011;29380;50.124;8.692;2024-03-23T12:32:54;5.97;;;2.58;;
43760;SDS011;29380;50.124;8.692;2024-03-23T12:35:20;5.22;;;1.88;;
43760;SDS011;29380;50.124;8.692;2024-03-23T12:37:46;5.68;;;1.85;;
43760;SDS011;29380;50.124;8.692;2024-03-23T12:40:12;3.67;;;1.70;;
43760;SDS011;29380;50.124;8.692;2024-03-23T12:42:38;5.88;;;1.70;;
43760;SDS011;29380;50.124;8.692;2024-03-23T12:45:04;8.68;;;2.70;;
43760;SDS011;29380;50.124;8.692;2024-03-23T12:47:31;6.05;;;1.75;;
43760;SDS011;29380;50.124;8.692;2024-03-23T12:49:57;9.57;;;1.98;;
43760;SDS011;29380;50.124;8.692;2024-03-23T12:52:26;6.43;;;1.85;;
43760;SDS011;29380;50.124;8.692;2024-03-23T12:54:56;7.45;;;1.88;;
43760;SDS011;29380;50.124;8.692;2024-03-23T12:57:25;13.10;;;2.13;;
43760;SDS011;29380;50.124;8.692;2024-03-23T12:59:52;9.88;;;2.75;;
43760;SDS011;29380;50.124;8.692;2024-03-23T13:02:22;6.95;;;2.10;;
43760;SDS011;29380;50.124;8.692;2024-03-23T13:04:51;13.93;;;3.65;;
43760;SDS011;29380;50.124;8.692;2024-03-23T13:07:18;7.05;;;2.05;;
43760;SDS011;29380;50.124;8.692;2024-03-23T13:09:44;5.70;;;2.03;;
43760;SDS011;29380;50.124;8.692;2024-03-23T13:12:11;10.57;;;2.88;;
43760;SDS011;29380;50.124;8.692;2024-03-23T13:14:40;7.75;;;2.35;;
43760;SDS011;29380;50.124;8.692;2024-03-23T13:17:06;7.22;;;1.92;;
43760;SDS011;29380;50.124;8.692;2024-03-23T13:19:32;7.43;;;2.10;;
43760;SDS011;29380;50.124;8.692;2024-03-23T13:22:02;2.72;;;0.80;;
43760;SDS011;29380;50.124;8.692;2024-03-23T13:24:29;3.45;;;0.82;;
43760;SDS011;29380;50.124;8.692;2024-03-23T13:26:55;2.75;;;1.20;;
43760;SDS011;29380;50.124;8.692;2024-03-23T13:29:22;2.47;;;0.40;;
43760;SDS011;29380;50.124;8.692;2024-03-23T13:31:48;0.80;;;0.20;;
43760;SDS011;29380;50.124;8.692;2024-03-23T13:34:15;3.38;;;0.50;;
43760;SDS011;29380;50.124;8.692;2024-03-23T13:36:41;4.40;;;1.13;;
43760;SDS011;29380;50.124;8.692;2024-03-23T13:39:08;1.33;;;0.82;;
43760;SDS011;29380;50.124;8.692;2024-03-23T13:41:37;1.55;;;0.70;;
43760;SDS011;29380;50.124;8.692;2024-03-23T13:44:03;2.70;;;0.70;;
43760;SDS011;29380;50.124;8.692;2024-03-23T13:46:29;0.80;;;0.40;;
43760;SDS011;29380;50.124;8.692;2024-03-23T13:48:56;1.42;;;0.40;;
43760;SDS011;29380;50.124;8.692;2024-03-23T13:51:25;0.80;;;0.30;;
43760;SDS011;29380;50.124;8.692;2024-03-23T13:53:54;1.45;;;0.38;;
43760;SDS011;29380;50.124;8.692;2024-03-23T13:56:21;0.88;;;0.28;;
43760;SDS011;29380;50.124;8.692;2024-03-23T13:58:47;2.47;;;0.40;;
43760;SDS011;29380;50.124;8.692;2024-03-23T14:01:14;0.77;;;0.40;;
43760;SDS011;29380;50.124;8.692;2024-03-23T14:03:40;1.88;;;0.40;;
43760;SDS011;29380;50.124;8.692;2024-03-23T14:06:07;1.45;;;0.20;;
43760;SDS011;29380;50.124;8.692;2024-03-23T14:08:35;2.00;;;0.43;;
43760;SDS011;29380;50.124;8.692;2024-03-23T14:11:04;1.40;;;0.43;;
43760;SDS011;29380;50.124;8.692;2024-03-23T14:13:30;2.38;;;0.35;;
43760;SDS011;29380;50.124;8.692;2024-03-23T14:15:56;1.63;;;0.50;;
43760;SDS011;29380;50.124;8.692;2024-03-23T14:18:22;3.83;;;0.75;;
43760;SDS011;29380;50.124;8.692;2024-03-23T14:20:49;2.33;;;0.50;;
43760;SDS011;29380;50.124;8.692;2024-03-23T14:23:16;3.67;;;0.45;;
43760;SDS011;29380;50.124;8.692;2024-03-23T14:25:42;1.88;;;0.50;;
43760;SDS011;29380;50.124;8.692;2024-03-23T14:28:10;1.67;;;0.65;;
43760;SDS011;29380;50.124;8.692;2024-03-23T14:30:42;2.58;;;1.00;;
43760;SDS011;29380;50.124;8.692;2024-03-23T14:33:08;2.58;;;0.35;;
43760;SDS011;29380;50.124;8.692;2024-03-23T14:35:35;1.88;;;0.88;;
43760;SDS011;29380;50.124;8.692;2024-03-23T14:38:01;2.28;;;0.80;;
43760;SDS011;29380;50.124;8.692;2024-03-23T14:40:27;1.05;;;0.60;;
43760;SDS011;29380;50.124;8.692;2024-03-23T14:42:54;4.50;;;1.17;;
43760;SDS011;29380;50.124;8.692;2024-03-23T14:45:23;3.83;;;0.52;;
43760;SDS011;29380;50.124;8.692;2024-03-23T14:47:50;4.07;;;1.00;;
43760;SDS011;29380;50.124;8.692;2024-03-23T14:50:16;3.17;;;0.77;;
43760;SDS011;29380;50.124;8.692;2024-03-23T14:52:45;3.78;;;0.50;;
43760;SDS011;29380;50.124;8.692;2024-03-23T14:55:11;2.58;;;0.85;;
43760;SDS011;29380;50.124;8.692;2024-03-23T14:57:38;1.05;;;0.40;;
43760;SDS011;29380;50.124;8.692;2024-03-23T15:00:08;0.95;;;0.40;;
43760;SDS011;29380;50.124;8.692;2024-03-23T15:02:37;0.90;;;0.38;;
43760;SDS011;29380;50.124;8.692;2024-03-23T15:05:04;3.88;;;0.80;;
43760;SDS011;29380;50.124;8.692;2024-03-23T15:07:32;1.13;;;0.52;;
43760;SDS011;29380;50.124;8.692;2024-03-23T15:09:58;2.88;;;0.45;;
43760;SDS011;29380;50.124;8.692;2024-03-23T15:12:25;0.80;;;0.40;;
43760;SDS011;29380;50.124;8.692;2024-03-23T15:14:51;1.40;;;0.47;;
43760;SDS011;29380;50.124;8.692;2024-03-23T15:17:17;4.13;;;0.93;;
43760;SDS011;29380;50.124;8.692;2024-03-23T15:19:44;0.70;;;0.30;;
43760;SDS011;29380;50.124;8.692;2024-03-23T15:22:10;4.10;;;0.50;;
43760;SDS011;29380;50.124;8.692;2024-03-23T15:24:36;2.05;;;0.60;;
43760;SDS011;29380;50.124;8.692;2024-03-23T15:27:04;1.55;;;0.30;;
43760;SDS011;29380;50.124;8.692;2024-03-23T15:29:33;1.42;;;0.73;;
43760;SDS011;29380;50.124;8.692;2024-03-23T15:32:01;2.97;;;0.82;;
43760;SDS011;29380;50.124;8.692;2024-03-23T15:34:28;2.80;;;0.60;;
43760;SDS011;29380;50.124;8.692;2024-03-23T15:36:54;1.98;;;0.50;;
43760;SDS011;29380;50.124;8.692;2024-03-23T15:39:21;3.10;;;0.65;;
43760;SDS011;29380;50.124;8.692;2024-03-23T15:41:47;2.28;;;0.40;;
43760;SDS011;29380;50.124;8.692;2024-03-23T15:44:13;3.97;;;1.13;;
43760;SDS011;29380;50.124;8.692;2024-03-23T15:46:39;2.58;;;1.00;;